createdAt,value
2018-01-18T12:01:37.080Z,4.67
2018-01-18T12:04:03.461Z,1.97
2018-01-18T12:06:29.648Z,2.27
2018-01-18T12:08:55.956Z,1.90
2018-01-18T12:11:22.169Z,4.27
2018-01-18T12:13:48.324Z,3.67
2018-01-18T12:16:14.561Z,2.73
2018-01-18T12:18:40.825Z,2.87
2018-01-18T12:21:07.077Z,4.53
2018-01-18T12:23:33.237Z,8.23
2018-01-18T12:25:59.455Z,8.37
2018-01-18T12:28:25.690Z,1.77
2018-01-18T12:30:51.978Z,4.40
2018-01-18T12:33:18.142Z,5.93
2018-01-18T12:35:44.349Z,5.33
2018-01-18T12:38:10.532Z,4.63
2018-01-18T12:40:36.751Z,3.03
2018-01-18T12:43:02.915Z,1.90
2018-01-18T12:45:29.163Z,5.07
2018-01-18T12:47:55.339Z,4.27
2018-01-18T12:50:21.534Z,2.17
2018-01-18T12:52:47.771Z,2.67
2018-01-18T12:55:13.918Z,4.47
2018-01-18T12:57:40.108Z,3.40
2018-01-18T13:00:06.531Z,5.13
2018-01-18T13:02:32.782Z,3.27
2018-01-18T13:04:59.174Z,2.00
2018-01-18T13:07:25.294Z,3.00
2018-01-18T13:09:51.828Z,4.90
2018-01-18T13:12:17.955Z,2.87
2018-01-18T13:14:44.063Z,4.50
2018-01-18T13:17:10.240Z,2.30
2018-01-18T13:19:36.431Z,3.33
2018-01-18T13:22:02.691Z,3.80
2018-01-18T13:24:28.731Z,1.47
2018-01-18T13:26:54.893Z,1.37
2018-01-18T13:29:21.000Z,2.07
2018-01-18T13:31:47.127Z,5.07
2018-01-18T13:34:13.253Z,3.00
2018-01-18T13:36:39.373Z,1.60
2018-01-18T13:39:05.490Z,3.23
2018-01-18T13:41:31.726Z,3.67
2018-01-18T13:43:57.831Z,2.90
2018-01-18T13:46:23.988Z,2.20
2018-01-18T13:48:50.112Z,2.03
2018-01-18T13:51:16.274Z,4.40
2018-01-18T13:53:42.397Z,3.07
2018-01-18T13:56:08.532Z,3.17
2018-01-18T13:58:36.008Z,7.73
2018-01-18T14:01:02.229Z,5.23
2018-01-18T14:03:28.435Z,4.87
2018-01-18T14:05:54.638Z,3.47
2018-01-18T14:08:20.801Z,2.20
2018-01-18T14:10:47.002Z,6.57
2018-01-18T14:13:13.173Z,5.30
2018-01-18T14:15:39.401Z,7.77
2018-01-18T14:18:05.570Z,6.40
2018-01-18T14:20:31.833Z,4.83
2018-01-18T14:22:57.978Z,4.10
2018-01-18T14:25:24.150Z,5.80
2018-01-18T14:27:50.440Z,6.60
2018-01-18T14:30:16.664Z,6.30
2018-01-18T14:32:42.866Z,7.93
2018-01-18T14:35:09.080Z,3.50
2018-01-18T14:37:35.261Z,7.00
2018-01-18T14:40:01.432Z,2.40
2018-01-18T14:42:27.656Z,4.23
2018-01-18T14:44:53.797Z,3.73
2018-01-18T14:47:19.978Z,6.07
2018-01-18T14:49:46.180Z,5.73
2018-01-18T14:52:12.357Z,9.00
2018-01-18T14:54:38.646Z,3.23
2018-01-18T14:57:04.836Z,4.97
2018-01-18T14:59:31.015Z,6.70
2018-01-18T15:01:57.251Z,4.43
2018-01-18T15:04:23.394Z,4.33
2018-01-18T15:06:49.663Z,4.37
2018-01-18T15:09:15.831Z,2.33
2018-01-18T15:11:42.034Z,5.57
2018-01-18T15:14:08.216Z,3.10
2018-01-18T15:43:59.398Z,3.10
2018-01-18T15:46:25.644Z,8.20
2018-01-18T15:48:51.809Z,7.90
2018-01-18T15:51:17.970Z,5.03
2018-01-18T15:53:44.108Z,6.27
2018-01-18T15:56:10.273Z,6.07
2018-01-18T15:58:36.381Z,7.67
2018-01-18T16:01:02.552Z,5.00
2018-01-18T16:03:28.719Z,5.03
2018-01-18T16:05:54.874Z,11.00
2018-01-18T16:08:21.086Z,8.00
2018-01-18T16:10:47.222Z,13.80
2018-01-18T16:13:13.412Z,10.90
2018-01-18T16:15:39.496Z,10.73
2018-01-18T16:18:05.670Z,8.17
2018-01-18T16:20:31.840Z,6.63
2018-01-18T16:22:58.038Z,9.10
2018-01-18T16:25:24.181Z,10.57
2018-01-18T16:27:50.322Z,6.20
2018-01-18T16:30:16.524Z,6.80
2018-01-18T16:32:42.612Z,16.30
2018-01-18T16:35:08.801Z,14.23
2018-01-18T16:37:34.980Z,10.07
2018-01-18T16:40:01.829Z,9.60
2018-01-18T16:42:27.957Z,13.60
2018-01-18T16:44:54.141Z,15.07
2018-01-18T16:47:20.276Z,9.10
2018-01-18T16:49:46.541Z,10.30
2018-01-18T16:52:12.671Z,12.13
2018-01-18T16:54:38.896Z,7.90
2018-01-18T16:57:05.064Z,17.10
2018-01-18T16:59:31.191Z,14.23
2018-01-18T17:01:57.660Z,13.37
2018-01-18T17:04:23.815Z,13.50
2018-01-18T17:06:49.910Z,5.33
2018-01-18T17:09:16.103Z,4.57
2018-01-18T17:11:42.245Z,6.73
2018-01-18T17:14:08.378Z,4.90
2018-01-18T17:16:34.570Z,3.03
2018-01-18T17:19:00.726Z,5.10
2018-01-18T17:21:26.876Z,8.17
2018-01-18T17:23:53.116Z,5.73
2018-01-18T17:26:19.212Z,5.93
2018-01-18T17:28:45.358Z,5.87
2018-01-18T17:31:11.483Z,7.80
2018-01-18T17:33:37.626Z,10.73
2018-01-18T17:36:03.784Z,10.40
2018-01-18T17:38:30.220Z,13.17
2018-01-18T17:40:56.357Z,14.67
2018-01-18T17:43:22.477Z,12.53
2018-01-18T17:45:50.259Z,12.23
2018-01-18T17:48:16.524Z,14.03
2018-01-18T17:50:42.699Z,14.43
2018-01-18T17:53:08.806Z,13.83
2018-01-18T17:55:35.077Z,16.57
2018-01-18T17:58:01.243Z,14.67
2018-01-18T18:00:27.549Z,24.97
2018-01-18T18:02:53.681Z,24.90
2018-01-18T18:05:19.915Z,28.27
2018-01-18T18:07:46.108Z,54.17
2018-01-18T18:10:12.285Z,39.33
2018-01-18T18:12:38.422Z,34.13
2018-01-18T18:15:04.567Z,30.20
2018-01-18T18:17:30.676Z,28.13
2018-01-18T18:19:56.959Z,20.70
2018-01-18T18:22:23.119Z,32.37
2018-01-18T18:24:49.255Z,20.50
2018-01-18T18:27:15.514Z,22.00
2018-01-18T18:29:41.721Z,8.70
2018-01-18T18:32:07.896Z,7.93
2018-01-18T18:34:34.143Z,11.93
2018-01-18T18:37:00.329Z,8.10
2018-01-18T18:39:26.520Z,9.53
2018-01-18T18:41:52.874Z,8.53
2018-01-18T18:44:19.009Z,14.37
2018-01-18T18:46:45.184Z,6.63
2018-01-18T18:49:11.364Z,12.50
2018-01-18T18:51:37.501Z,13.93
2018-01-18T18:54:03.646Z,9.47
2018-01-18T18:56:30.737Z,8.27
2018-01-18T18:58:57.668Z,8.93
2018-01-18T19:01:23.773Z,10.00
2018-01-18T19:03:49.958Z,20.30
2018-01-18T19:06:16.250Z,13.30
2018-01-18T19:08:42.464Z,7.07
2018-01-18T19:11:08.606Z,4.13
2018-01-18T19:13:36.544Z,6.63
2018-01-18T19:16:02.706Z,6.97
2018-01-18T19:18:28.899Z,6.00
2018-01-18T19:20:55.042Z,7.30
2018-01-18T19:23:21.172Z,9.77
2018-01-18T19:25:47.280Z,14.00
2018-01-18T19:28:13.480Z,6.23
2018-01-18T19:30:39.585Z,10.40
2018-01-18T19:33:05.712Z,7.77
2018-01-18T19:35:33.164Z,5.00
2018-01-18T19:37:59.311Z,8.17
2018-01-18T19:40:25.469Z,12.10
2018-01-18T19:42:51.591Z,10.93
2018-01-18T19:45:17.737Z,10.97
2018-01-18T19:47:43.878Z,15.17
2018-01-18T19:50:10.049Z,11.30
2018-01-18T19:52:36.188Z,10.27
2018-01-18T19:55:02.425Z,5.57
2018-01-18T19:57:29.363Z,9.97
2018-01-18T19:59:56.214Z,5.70
2018-01-18T20:02:22.426Z,3.40
2018-01-18T20:04:49.505Z,5.23
2018-01-18T20:07:15.743Z,5.30
2018-01-18T20:09:42.043Z,3.07
2018-01-18T20:12:08.451Z,2.83
2018-01-18T20:14:34.647Z,4.93
2018-01-18T20:17:00.808Z,3.43
2018-01-18T20:19:27.040Z,8.17
2018-01-18T20:21:53.334Z,6.67
2018-01-18T20:24:19.477Z,9.57
2018-01-18T20:26:45.794Z,7.57
2018-01-18T20:29:12.011Z,5.03
2018-01-18T20:31:38.151Z,3.33
2018-01-18T20:34:04.381Z,9.03
2018-01-18T20:36:30.634Z,3.57
2018-01-18T20:38:57.889Z,3.40
2018-01-18T20:41:24.890Z,4.53
2018-01-18T20:43:51.069Z,4.73
2018-01-18T20:46:17.337Z,3.70
2018-01-18T20:48:43.666Z,6.93
2018-01-18T20:51:09.839Z,5.80
2018-01-18T20:53:35.985Z,3.30
2018-01-18T20:56:02.213Z,10.17
2018-01-18T20:58:28.450Z,9.97
2018-01-18T21:00:54.702Z,10.83
2018-01-18T21:03:22.090Z,10.70
2018-01-18T21:05:48.356Z,6.93
2018-01-18T21:08:14.526Z,7.93
2018-01-18T21:10:40.736Z,6.30
2018-01-18T21:13:06.884Z,8.40
2018-01-18T21:15:33.041Z,7.57
2018-01-18T21:17:59.289Z,6.90
2018-01-18T21:20:25.477Z,8.03
2018-01-18T21:22:51.620Z,9.73
2018-01-18T21:25:17.866Z,10.67
2018-01-18T21:27:44.121Z,7.27
2018-01-18T21:30:10.414Z,4.93
2018-01-18T21:32:36.561Z,8.20
2018-01-18T21:35:02.874Z,9.30
2018-01-18T21:37:29.038Z,3.73
2018-01-18T21:39:55.256Z,2.90
2018-01-18T21:42:21.432Z,5.37
2018-01-18T21:44:47.686Z,8.13
2018-01-18T21:47:14.630Z,5.80
2018-01-18T21:49:40.862Z,6.57
2018-01-18T21:52:07.023Z,7.97
2018-01-18T21:54:33.204Z,4.77
2018-01-18T21:56:59.388Z,5.73
2018-01-18T21:59:25.610Z,5.80
2018-01-18T22:01:51.822Z,6.67
2018-01-18T22:04:18.008Z,7.00
2018-01-18T22:06:44.184Z,6.07
2018-01-18T22:09:13.220Z,10.17
2018-01-18T22:11:39.427Z,8.37
2018-01-18T22:14:05.741Z,8.77
2018-01-18T22:16:32.028Z,5.60
2018-01-18T22:18:58.270Z,7.60
2018-01-18T22:21:24.468Z,7.67
2018-01-18T22:23:50.708Z,8.83
2018-01-18T22:26:16.965Z,12.10
2018-01-18T22:28:43.150Z,7.70
2018-01-18T22:31:09.427Z,8.53
2018-01-18T22:33:35.574Z,8.10
2018-01-18T22:36:01.757Z,10.97
2018-01-18T22:38:27.939Z,9.37
2018-01-18T22:40:54.712Z,10.87
2018-01-18T22:43:20.908Z,11.87
2018-01-18T22:45:47.105Z,9.03
2018-01-18T22:48:13.267Z,10.17
2018-01-18T22:50:39.476Z,10.10
2018-01-18T22:53:05.653Z,6.33
2018-01-18T22:55:31.791Z,9.93
2018-01-18T22:57:57.977Z,5.63
2018-01-18T23:00:24.291Z,6.90
2018-01-18T23:02:50.492Z,8.70
2018-01-18T23:05:16.803Z,5.83
2018-01-18T23:07:42.994Z,8.00
2018-01-18T23:10:09.258Z,9.83
2018-01-18T23:12:35.414Z,8.87
2018-01-18T23:15:01.674Z,6.10
2018-01-18T23:17:27.832Z,10.27
2018-01-18T23:19:54.066Z,5.57
2018-01-18T23:22:20.224Z,6.97
2018-01-18T23:24:46.388Z,6.90
2018-01-18T23:27:12.672Z,5.17
2018-01-18T23:29:38.982Z,4.00
2018-01-18T23:32:05.140Z,3.57
2018-01-18T23:34:31.385Z,2.30
2018-01-18T23:36:58.176Z,4.57
2018-01-18T23:39:25.358Z,3.53
2018-01-18T23:41:51.515Z,3.50
2018-01-18T23:44:17.743Z,7.20
2018-01-18T23:46:43.915Z,7.60
2018-01-18T23:49:10.154Z,6.43
2018-01-18T23:51:36.395Z,5.43
2018-01-18T23:54:02.546Z,3.60
2018-01-18T23:56:28.676Z,4.43
2018-01-18T23:58:55.813Z,5.57
